createdAt,value
2019-06-07T00:03:52.446Z,100214.05
2019-06-07T00:08:56.802Z,100213.81
2019-06-07T00:14:01.086Z,100203.12
2019-06-07T00:19:07.211Z,100205.88
2019-06-07T00:24:14.041Z,100182.89
2019-06-07T00:29:19.578Z,100166.93
2019-06-07T00:34:25.089Z,100170.09
2019-06-07T00:39:29.502Z,100189.03
2019-06-07T00:44:33.794Z,100195.00
2019-06-07T00:49:41.318Z,100198.77
2019-06-07T00:54:44.109Z,100203.05
2019-06-07T00:59:48.592Z,100203.76
2019-06-07T01:04:52.903Z,100201.92
2019-06-07T01:09:57.207Z,100185.66
2019-06-07T01:15:01.524Z,100178.20
2019-06-07T01:20:07.728Z,100184.97
2019-06-07T01:25:12.532Z,100205.30
2019-06-07T01:30:18.889Z,100187.00
2019-06-07T01:35:23.906Z,100197.02
2019-06-07T01:40:32.239Z,100192.20
2019-06-07T01:45:35.246Z,100190.11
2019-06-07T01:50:39.550Z,100168.17
2019-06-07T01:55:44.427Z,100185.16
2019-06-07T02:00:48.731Z,100185.34
2019-06-07T02:05:53.026Z,100183.52
2019-06-07T02:10:57.336Z,100177.47
2019-06-07T02:16:01.614Z,100178.23
2019-06-07T02:21:05.940Z,100180.78
2019-06-07T02:26:10.215Z,100182.87
2019-06-07T02:31:14.509Z,100192.16
2019-06-07T02:36:18.817Z,100195.69
2019-06-07T02:41:28.362Z,100207.58
2019-06-07T02:46:40.208Z,100203.02
2019-06-07T02:51:41.674Z,100210.08
2019-06-07T02:56:56.699Z,100215.57
2019-06-07T03:01:48.457Z,100211.95
2019-06-07T03:06:53.710Z,100192.65
2019-06-07T03:11:59.279Z,100192.65
2019-06-07T03:17:18.822Z,100200.69
2019-06-07T03:22:23.092Z,100204.33
2019-06-07T03:27:36.050Z,100208.79
2019-06-07T03:32:36.911Z,100217.42
2019-06-07T03:37:42.683Z,100222.88
2019-06-07T03:42:46.010Z,100220.60
2019-06-07T03:47:50.333Z,100225.22
2019-06-07T03:52:54.637Z,100225.22
2019-06-07T03:58:30.807Z,100223.02
2019-06-07T04:03:04.920Z,100225.59
2019-06-07T04:08:09.195Z,100240.16
2019-06-07T04:13:13.479Z,100247.30
2019-06-07T04:18:17.783Z,100244.41
2019-06-07T04:23:28.199Z,100240.66
2019-06-07T04:29:19.044Z,100244.27
2019-06-07T04:33:39.132Z,100242.39
2019-06-07T04:38:42.621Z,100245.28
2019-06-07T04:43:47.437Z,100244.59
2019-06-07T04:48:52.409Z,100245.45
2019-06-07T04:53:56.709Z,100240.70
2019-06-07T04:59:01.005Z,100246.86
2019-06-07T05:04:05.434Z,100247.22
2019-06-07T05:09:09.709Z,100254.33
2019-06-07T05:14:18.428Z,100246.57
2019-06-07T05:19:22.771Z,100242.14
2019-06-07T05:24:27.049Z,100249.09
2019-06-07T05:29:34.856Z,100242.35
2019-06-07T05:34:40.046Z,100252.91
2019-06-07T05:39:46.554Z,100251.41
2019-06-07T05:44:50.768Z,100254.33
2019-06-07T05:49:55.103Z,100254.14
2019-06-07T05:54:59.458Z,100253.70
2019-06-07T06:00:07.169Z,100258.51
2019-06-07T06:05:30.282Z,100248.56
2019-06-07T06:10:18.665Z,100250.92
2019-06-07T06:15:41.699Z,100246.91
2019-06-07T06:20:34.813Z,100251.86
2019-06-07T06:25:35.091Z,100240.56
2019-06-07T06:30:41.130Z,100252.56
2019-06-07T06:35:48.929Z,100239.67
2019-06-07T06:41:11.860Z,100242.47
2019-06-07T06:45:57.499Z,100249.06
2019-06-07T06:51:01.838Z,100258.50
2019-06-07T06:56:06.218Z,100262.70
2019-06-07T07:01:10.507Z,100259.16
2019-06-07T07:06:25.711Z,100255.23
2019-06-07T07:11:23.165Z,100248.69
2019-06-07T07:16:28.911Z,100253.63
2019-06-07T07:21:35.877Z,100251.25
2019-06-07T07:26:40.279Z,100252.31
2019-06-07T07:31:45.646Z,100256.22
2019-06-07T07:36:57.882Z,100263.95
2019-06-07T07:42:17.721Z,100273.04
2019-06-07T07:47:02.693Z,100267.19
2019-06-07T07:52:07.015Z,100262.31
2019-06-07T07:57:11.294Z,100270.87
2019-06-07T08:02:15.571Z,100269.18
2019-06-07T08:07:20.990Z,100271.13
2019-06-07T08:12:25.259Z,100274.60
2019-06-07T08:17:29.573Z,100275.38
2019-06-07T08:22:33.891Z,100276.69
2019-06-07T08:27:38.163Z,100270.55
2019-06-07T08:32:43.516Z,100274.66
2019-06-07T08:43:10.286Z,100275.81
2019-06-07T08:48:09.198Z,100273.16
2019-06-07T08:53:12.104Z,100279.56
2019-06-07T08:58:12.008Z,100278.88
2019-06-07T09:03:16.327Z,100276.52
2019-06-07T09:08:30.043Z,100277.16
2019-06-07T09:13:26.617Z,100271.84
2019-06-07T09:18:42.137Z,100267.00
2019-06-07T09:23:36.911Z,100264.14
2019-06-07T09:28:41.619Z,100254.30
2019-06-07T09:33:45.895Z,100252.95
2019-06-07T09:38:50.893Z,100245.84
2019-06-07T09:44:05.242Z,100240.93
2019-06-07T09:49:14.679Z,100243.48
2019-06-07T09:54:10.872Z,100244.27
2019-06-07T09:59:13.298Z,100239.84
2019-06-07T10:04:30.613Z,100233.65
2019-06-07T10:10:09.222Z,100230.61
2019-06-07T10:14:29.903Z,100226.98
2019-06-07T10:19:34.174Z,100222.99
2019-06-07T10:24:38.459Z,100228.92
2019-06-07T10:29:42.764Z,100224.07
2019-06-07T10:34:47.069Z,100225.84
2019-06-07T10:39:51.374Z,100212.83
2019-06-07T10:44:55.702Z,100195.37
2019-06-07T10:49:59.995Z,100199.76
2019-06-07T10:55:06.543Z,100193.05
2019-06-07T11:00:13.490Z,100183.80
2019-06-07T11:05:19.244Z,100178.28
2019-06-07T11:10:23.637Z,100169.61
2019-06-07T11:15:28.040Z,100167.75
2019-06-07T11:20:33.320Z,100153.33
2019-06-07T11:25:37.608Z,100150.50
2019-06-07T11:30:41.919Z,100146.66
2019-06-07T11:35:46.231Z,100134.66
2019-06-07T11:40:50.531Z,100139.53
2019-06-07T11:45:54.833Z,100142.34
2019-06-07T11:50:59.118Z,100135.09
2019-06-07T11:56:03.451Z,100132.03
2019-06-07T12:01:09.464Z,100118.03
2019-06-07T12:06:14.970Z,100115.39
2019-06-07T12:11:20.660Z,100104.60
2019-06-07T12:16:24.956Z,100092.12
2019-06-07T12:21:29.746Z,100095.11
2019-06-07T12:26:34.027Z,100075.16
2019-06-07T12:31:38.312Z,100082.82
2019-06-07T12:36:42.651Z,100076.66
2019-06-07T12:41:46.968Z,100077.27
2019-06-07T12:46:51.272Z,100068.59
2019-06-07T12:51:55.574Z,100051.70
2019-06-07T12:57:00.587Z,100051.47
2019-06-07T13:02:05.028Z,100050.83
2019-06-07T13:07:09.332Z,100039.17
2019-06-07T13:12:13.623Z,100040.27
2019-06-07T13:17:18.241Z,100029.58
2019-06-07T13:22:22.774Z,100025.02
2019-06-07T13:27:27.352Z,100023.55
2019-06-07T13:32:32.999Z,100013.22
2019-06-07T13:37:37.298Z,100014.02
2019-06-07T13:42:41.609Z,100009.87
2019-06-07T13:47:45.860Z,99999.36
2019-06-07T13:52:51.198Z,99991.05
2019-06-07T13:57:55.466Z,99981.29
2019-06-07T14:02:59.775Z,99988.73
2019-06-07T14:08:04.057Z,99984.75
2019-06-07T14:13:11.774Z,99972.17
2019-06-07T14:18:17.667Z,99958.53
2019-06-07T14:23:41.316Z,99948.70
2019-06-07T14:28:31.784Z,99942.06
2019-06-07T14:33:34.006Z,99939.50
2019-06-07T14:38:39.318Z,99928.33
2019-06-07T14:43:43.711Z,99919.27
2019-06-07T14:48:48.344Z,99937.59
2019-06-07T14:53:52.643Z,99925.58
2019-06-07T14:58:56.896Z,99926.64
2019-06-07T15:04:01.203Z,99923.00
2019-06-07T15:09:07.515Z,99916.09
2019-06-07T15:14:11.863Z,99917.30
2019-06-07T15:19:16.141Z,99915.59
2019-06-07T15:24:20.461Z,99903.34
2019-06-07T15:29:24.750Z,99896.55
2019-06-07T15:34:30.423Z,99892.16
2019-06-07T15:39:34.874Z,99889.80
2019-06-07T15:44:39.549Z,99870.27
2019-06-07T15:49:43.826Z,99870.27
2019-06-07T15:54:48.152Z,99877.49
2019-06-07T15:59:52.435Z,99882.81
2019-06-07T16:04:56.714Z,99888.20
2019-06-07T16:10:01.016Z,99890.36
2019-06-07T16:15:09.646Z,99883.21
2019-06-07T16:20:14.264Z,99889.00
2019-06-07T16:25:19.421Z,99886.95
2019-06-07T16:30:23.878Z,99884.74
2019-06-07T16:35:28.180Z,99875.80
2019-06-07T16:40:32.448Z,99868.48
2019-06-07T16:45:36.709Z,99869.01
2019-06-07T16:50:41.056Z,99867.18
2019-06-07T16:55:45.350Z,99866.36
2019-06-07T17:00:51.288Z,99868.52
2019-06-07T17:05:55.566Z,99867.60
2019-06-07T17:10:59.841Z,99872.79
2019-06-07T17:16:04.214Z,99869.08
2019-06-07T17:21:08.495Z,99868.11
2019-06-07T17:26:12.806Z,99863.97
2019-06-07T17:31:17.185Z,99854.27
2019-06-07T17:36:21.454Z,99855.02
2019-06-07T17:41:25.733Z,99855.03
2019-06-07T17:46:30.045Z,99855.52
2019-06-07T17:51:34.332Z,99848.71
2019-06-07T17:56:38.682Z,99841.95
2019-06-07T18:02:05.862Z,99846.05
2019-06-07T18:06:49.737Z,99834.05
2019-06-07T18:11:54.169Z,99835.52
2019-06-07T18:16:58.477Z,99833.34
2019-06-07T18:22:04.344Z,99838.08
2019-06-07T18:27:08.711Z,99832.75
2019-06-07T18:32:13.699Z,99832.77
2019-06-07T18:37:18.148Z,99833.03
2019-06-07T18:42:22.561Z,99831.92
2019-06-07T18:47:26.873Z,99821.64
2019-06-07T18:52:33.642Z,99812.43
2019-06-07T18:57:39.041Z,99816.78
2019-06-07T19:02:44.407Z,99811.23
2019-06-07T19:07:48.673Z,99803.95
2019-06-07T19:12:53.266Z,99809.16
2019-06-07T19:18:00.737Z,99804.63
2019-06-07T19:23:04.783Z,99806.59
2019-06-07T19:28:09.808Z,99815.30
2019-06-07T19:33:14.194Z,99811.42
2019-06-07T19:38:18.477Z,99809.31
2019-06-07T19:43:22.743Z,99808.73
2019-06-07T19:48:27.042Z,99811.75
2019-06-07T19:53:31.380Z,99811.87
2019-06-07T19:58:35.627Z,99824.61
2019-06-07T20:03:39.892Z,99817.50
2019-06-07T20:08:44.158Z,99822.68
2019-06-07T20:13:48.455Z,99816.02
2019-06-07T20:18:52.742Z,99806.45
2019-06-07T20:23:57.033Z,99805.06
2019-06-07T20:29:01.415Z,99793.04
2019-06-07T20:34:06.037Z,99797.03
2019-06-07T20:39:10.361Z,99796.64
2019-06-07T20:44:14.643Z,99794.13
2019-06-07T20:49:18.948Z,99809.03
2019-06-07T20:54:23.203Z,99814.34
2019-06-07T20:59:27.515Z,99820.27
2019-06-07T21:04:31.806Z,99815.59
2019-06-07T21:09:36.725Z,99811.92
2019-06-07T21:14:40.993Z,99807.23
2019-06-07T21:19:45.301Z,99806.60
2019-06-07T21:24:49.599Z,99798.91
2019-06-07T21:29:53.860Z,99802.91
2019-06-07T21:34:58.145Z,99806.94
2019-06-07T21:40:04.070Z,99801.65
2019-06-07T21:45:09.829Z,99805.80
2019-06-07T21:50:15.002Z,99809.03
2019-06-07T21:55:19.311Z,99796.22
2019-06-07T22:00:34.439Z,99794.28
2019-06-07T22:05:40.372Z,99815.55
2019-06-07T22:10:44.665Z,99809.75
2019-06-07T22:15:48.958Z,99817.56
2019-06-07T22:20:53.288Z,99830.32
2019-06-07T22:25:57.609Z,99835.44
2019-06-07T22:31:01.911Z,99837.81
2019-06-07T22:36:06.865Z,99850.93
2019-06-07T22:41:12.386Z,99841.16
2019-06-07T22:46:17.362Z,99831.91
2019-06-07T22:51:21.661Z,99835.64
2019-06-07T22:56:30.536Z,99836.02
2019-06-07T23:01:34.823Z,99823.15
2019-06-07T23:06:39.118Z,99810.43
2019-06-07T23:11:43.416Z,99822.48
2019-06-07T23:16:55.251Z,99842.27
2019-06-07T23:21:54.745Z,99846.55
2019-06-07T23:26:59.045Z,99865.97
2019-06-07T23:32:03.322Z,99876.66
2019-06-07T23:37:07.612Z,99899.99
2019-06-07T23:42:11.880Z,99909.02
2019-06-07T23:47:17.677Z,99915.25
2019-06-07T23:52:22.212Z,99910.55
2019-06-07T23:57:26.494Z,99942.55
